Time;durP1;ratioP1;P1;durP2;ratioP2;P2;SDS_P1;SDS_P2;PMS_P1;PMS_P2;Temp;Humidity;BMP_temperature;BMP_pressure;BME280_temperature;BME280_humidity;BME280_pressure;Samples;Min_cycle;Max_cycle;Signal;HPM_P1;HPM_P2
2022/04/03 00:00:01;;;;;;;;;;;1.20;63.20;;;;;;5081553;28;19920;-69
2022/04/03 00:02:27;;;;;;;;;;;1.20;63.20;;;;;;5063240;28;20283;-69
2022/04/03 00:04:53;;;;;;;;;;;1.10;63.00;;;;;;5081364;28;19909;-69
2022/04/03 00:07:18;;;;;;;;;;;1.10;63.10;;;;;;5081384;28;20329;-69
2022/04/03 00:09:44;;;;;;;;;;;1.10;63.20;;;;;;5080873;28;19913;-69
2022/04/03 00:12:10;;;;;;;;;;;1.10;63.50;;;;;;5081181;28;20049;-69
2022/04/03 00:14:36;;;;;;;;;;;1.10;63.30;;;;;;5081270;28;19913;-69
2022/04/03 00:17:01;;;;;;;;;;;1.00;63.50;;;;;;5063095;28;19927;-69
2022/04/03 00:19:27;;;;;;;;;;;1.00;63.50;;;;;;5081169;28;20489;-69
2022/04/03 00:21:53;;;;;;;;;;;1.00;63.70;;;;;;5081016;28;19908;-69
2022/04/03 00:24:18;;;;;;;;;;;0.90;63.70;;;;;;5062579;28;19912;-69
2022/04/03 00:26:44;;;;;;;;;;;0.90;63.70;;;;;;5080523;28;19930;-69
2022/04/03 00:29:10;;;;;;;;;;;0.90;64.10;;;;;;5080976;28;20397;-69
2022/04/03 00:31:35;;;;;;;;;;;0.90;63.90;;;;;;5080794;28;20454;-69
2022/04/03 00:34:01;;;;;;;;;;;0.90;63.90;;;;;;5080726;28;19912;-69
2022/04/03 00:36:26;;;;;;;;;;;0.90;64.10;;;;;;5080621;28;19956;-69
2022/04/03 00:38:52;;;;;;;;;;;0.80;64.30;;;;;;5080492;28;19909;-69
2022/04/03 00:41:20;;;;;;;;;;;0.80;63.70;;;;;;5080465;28;19913;-69
2022/04/03 00:43:46;;;;;;;;;;;0.80;63.40;;;;;;5080668;28;19909;-69
2022/04/03 00:46:13;;;;;;;;;;;0.80;63.40;;;;;;5080815;28;19917;-69
2022/04/03 00:48:40;;;;;;;;;;;0.80;63.50;;;;;;5080388;28;20019;-69
2022/04/03 00:51:05;;;;;;;;;;;0.70;63.30;;;;;;5080477;28;19909;-69
2022/04/03 00:53:31;;;;;;;;;;;0.70;63.90;;;;;;5080320;28;19939;-69
2022/04/03 00:55:56;;;;;;;;;;;0.70;64.00;;;;;;5080284;28;20427;-69
2022/04/03 00:58:23;;;;;;;;;;;0.60;64.20;;;;;;5080541;28;20009;-69
2022/04/03 01:00:48;;;;;;;;;;;0.70;63.90;;;;;;5080056;28;19908;-69
2022/04/03 01:03:14;;;;;;;;;;;0.60;64.40;;;;;;5080296;28;19912;-69
2022/04/03 01:05:40;;;;;;;;;;;0.60;64.60;;;;;;5080221;28;20406;-69
2022/04/03 01:08:06;;;;;;;;;;;0.60;64.60;;;;;;5080245;28;19909;-69
2022/04/03 01:10:32;;;;;;;;;;;0.60;65.20;;;;;;5079784;28;19912;-69
2022/04/03 01:12:58;;;;;;;;;;;0.50;64.80;;;;;;5080280;28;19958;-69
2022/04/03 01:15:23;;;;;;;;;;;0.60;64.90;;;;;;5080115;28;20371;-69
2022/04/03 01:17:49;;;;;;;;;;;0.60;65.00;;;;;;5080266;28;19915;-69
2022/04/03 01:20:15;;;;;;;;;;;0.60;65.30;;;;;;5079927;28;19916;-69
2022/04/03 01:22:40;;;;;;;;;;;0.60;65.30;;;;;;5079920;28;19909;-69
2022/04/03 01:25:09;;;;;;;;;;;0.60;65.50;;;;;;5079466;28;19908;-69
2022/04/03 01:27:35;;;;;;;;;;;0.70;65.40;;;;;;5079485;28;19971;-69
2022/04/03 01:30:01;;;;;;;;;;;0.70;65.00;;;;;;5079873;28;19917;-69
2022/04/03 01:32:26;;;;;;;;;;;0.70;64.70;;;;;;5079685;28;19909;-69
2022/04/03 01:34:52;;;;;;;;;;;0.70;64.60;;;;;;5079740;28;19914;-69
2022/04/03 01:37:18;;;;;;;;;;;0.70;64.60;;;;;;5079642;28;19931;-69
2022/04/03 01:39:43;;;;;;;;;;;0.70;64.80;;;;;;5078872;28;20387;-69
2022/04/03 01:42:09;;;;;;;;;;;0.70;64.60;;;;;;5079572;28;19908;-69
2022/04/03 01:44:35;;;;;;;;;;;0.70;64.60;;;;;;5079591;28;20272;-69
2022/04/03 01:47:01;;;;;;;;;;;0.70;64.80;;;;;;5079588;28;20409;-69
2022/04/03 01:49:27;;;;;;;;;;;0.60;64.80;;;;;;5079141;28;19921;-70
2022/04/03 01:51:52;;;;;;;;;;;0.60;64.80;;;;;;5079500;28;19924;-69
2022/04/03 01:54:18;;;;;;;;;;;0.60;65.10;;;;;;5078890;28;19915;-69
2022/04/03 01:56:44;;;;;;;;;;;0.50;65.20;;;;;;5079480;28;19912;-69
2022/04/03 01:59:10;;;;;;;;;;;0.50;65.20;;;;;;5061238;28;19958;-69
2022/04/03 02:01:35;;;;;;;;;;;0.50;65.00;;;;;;5079285;28;19908;-69
2022/04/03 02:04:03;;;;;;;;;;;0.40;65.20;;;;;;5079057;28;19912;-69
2022/04/03 02:06:29;;;;;;;;;;;0.40;65.20;;;;;;5079345;28;19923;-69
2022/04/03 02:08:55;;;;;;;;;;;0.40;65.50;;;;;;5078530;28;19957;-69
2022/04/03 02:11:20;;;;;;;;;;;0.40;64.80;;;;;;5078401;28;19946;-69
2022/04/03 02:13:46;;;;;;;;;;;0.30;64.30;;;;;;5078920;28;19924;-69
2022/04/03 02:16:12;;;;;;;;;;;0.30;64.60;;;;;;5078961;28;20375;-69
2022/04/03 02:18:37;;;;;;;;;;;0.30;64.60;;;;;;5078935;28;19909;-69
2022/04/03 02:21:03;;;;;;;;;;;0.30;64.80;;;;;;5078821;28;19909;-69
2022/04/03 02:23:29;;;;;;;;;;;0.20;64.60;;;;;;5078526;28;19920;-69
2022/04/03 02:25:54;;;;;;;;;;;0.20;65.10;;;;;;5060976;28;19960;-69
2022/04/03 02:28:20;;;;;;;;;;;0.20;65.40;;;;;;5078218;28;19912;-69
2022/04/03 02:30:46;;;;;;;;;;;0.20;65.00;;;;;;5078640;28;20046;-69
2022/04/03 02:33:12;;;;;;;;;;;0.10;65.20;;;;;;5078376;28;20041;-69
2022/04/03 02:35:37;;;;;;;;;;;0.10;65.40;;;;;;5078697;28;20298;-69
2022/04/03 02:38:03;;;;;;;;;;;0.10;66.40;;;;;;5078278;28;19912;-69
2022/04/03 02:40:30;;;;;;;;;;;0.10;65.50;;;;;;5078046;28;19908;-69
2022/04/03 02:42:55;;;;;;;;;;;0.10;65.10;;;;;;5078175;28;19951;-69
2022/04/03 02:45:21;;;;;;;;;;;0.10;64.50;;;;;;5078520;28;19913;-69
2022/04/03 02:47:47;;;;;;;;;;;0.10;64.30;;;;;;5078179;28;19916;-69
2022/04/03 02:50:16;;;;;;;;;;;0.10;65.40;;;;;;5078460;28;19948;-70
2022/04/03 02:52:41;;;;;;;;;;;0.10;65.50;;;;;;5078207;28;19920;-69
2022/04/03 02:55:07;;;;;;;;;;;0.00;64.90;;;;;;5077806;28;19909;-69
2022/04/03 02:57:33;;;;;;;;;;;0.00;65.00;;;;;;5078158;28;19917;-69
2022/04/03 02:59:59;;;;;;;;;;;0.00;65.00;;;;;;5078378;28;19909;-69
2022/04/03 03:02:24;;;;;;;;;;;0.00;64.20;;;;;;5077795;28;19908;-69
2022/04/03 03:04:50;;;;;;;;;;;0.00;64.10;;;;;;5078159;28;19908;-69
2022/04/03 03:07:16;;;;;;;;;;;0.00;64.60;;;;;;5078017;28;19908;-69
2022/04/03 03:09:42;;;;;;;;;;;0.00;64.80;;;;;;5077616;28;20359;-69
2022/04/03 03:12:07;;;;;;;;;;;-0.10;64.90;;;;;;5077977;28;19946;-71
2022/04/03 03:14:33;;;;;;;;;;;-0.10;64.90;;;;;;5078147;28;19940;-69
2022/04/03 03:17:01;;;;;;;;;;;-0.10;64.80;;;;;;5077925;28;19908;-69
2022/04/03 03:19:26;;;;;;;;;;;-0.10;64.90;;;;;;5078070;28;19915;-69
2022/04/03 03:21:52;;;;;;;;;;;-0.10;64.90;;;;;;5077764;28;19908;-69
2022/04/03 03:24:18;;;;;;;;;;;-0.20;65.00;;;;;;5077529;28;19908;-69
2022/04/03 03:26:43;;;;;;;;;;;-0.20;65.30;;;;;;5077351;28;19909;-69
2022/04/03 03:29:09;;;;;;;;;;;-0.20;65.30;;;;;;5077929;28;19913;-69
2022/04/03 03:31:34;;;;;;;;;;;-0.20;65.30;;;;;;5059675;28;19912;-71
2022/04/03 03:34:00;;;;;;;;;;;-0.20;65.30;;;;;;5077553;28;19954;-69
2022/04/03 03:36:26;;;;;;;;;;;-0.20;66.10;;;;;;5077570;28;20003;-69
2022/04/03 03:38:51;;;;;;;;;;;-0.20;65.70;;;;;;5077527;28;19912;-69
2022/04/03 03:41:17;;;;;;;;;;;-0.20;64.70;;;;;;5077312;28;19964;-69
2022/04/03 03:43:43;;;;;;;;;;;-0.30;66.10;;;;;;5077810;28;19908;-69
2022/04/03 03:46:09;;;;;;;;;;;-0.30;65.70;;;;;;5077565;28;19912;-69
2022/04/03 03:48:35;;;;;;;;;;;-0.30;65.80;;;;;;5077561;28;19920;-69
2022/04/03 03:51:01;;;;;;;;;;;-0.30;65.30;;;;;;5077446;28;19922;-69
2022/04/03 03:53:28;;;;;;;;;;;-0.30;65.00;;;;;;5077342;28;19908;-69
2022/04/03 03:55:54;;;;;;;;;;;-0.30;65.00;;;;;;5077432;28;20003;-69
2022/04/03 03:58:20;;;;;;;;;;;-0.30;65.00;;;;;;5077733;28;19936;-69
2022/04/03 04:00:45;;;;;;;;;;;-0.40;65.00;;;;;;5077419;28;19917;-69
2022/04/03 04:03:12;;;;;;;;;;;-0.40;65.20;;;;;;5077616;28;19912;-69
2022/04/03 04:05:38;;;;;;;;;;;-0.40;65.20;;;;;;5077428;28;19908;-69
2022/04/03 04:08:04;;;;;;;;;;;-0.30;65.70;;;;;;5077344;28;20066;-69
2022/04/03 04:10:30;;;;;;;;;;;-0.30;68.70;;;;;;5077122;28;19999;-69
2022/04/03 04:12:55;;;;;;;;;;;-0.30;67.10;;;;;;5077446;28;19916;-69
2022/04/03 04:15:22;;;;;;;;;;;-0.30;68.80;;;;;;5077272;28;19912;-69
2022/04/03 04:17:48;;;;;;;;;;;-0.30;68.10;;;;;;5077416;28;19915;-69
2022/04/03 04:20:15;;;;;;;;;;;-0.30;66.90;;;;;;5077294;28;19908;-69
2022/04/03 04:22:41;;;;;;;;;;;-0.30;66.30;;;;;;5077199;28;19908;-69
2022/04/03 04:25:08;;;;;;;;;;;-0.20;65.90;;;;;;5076937;28;20375;-69
2022/04/03 04:27:34;;;;;;;;;;;-0.20;69.50;;;;;;5076869;28;19930;-69
2022/04/03 04:29:59;;;;;;;;;;;-0.10;71.30;;;;;;5077214;28;20426;-69
2022/04/03 04:32:26;;;;;;;;;;;-0.10;69.50;;;;;;5077137;28;19912;-69
2022/04/03 04:34:51;;;;;;;;;;;0.00;68.90;;;;;;5078794;28;19950;-69
2022/04/03 04:37:17;;;;;;;;;;;0.00;69.50;;;;;;5080743;28;19913;-69
2022/04/03 04:39:43;;;;;;;;;;;0.00;72.70;;;;;;5080238;28;19954;-69
2022/04/03 04:42:09;;;;;;;;;;;0.00;71.50;;;;;;5080649;28;19912;-69
2022/04/03 04:44:35;;;;;;;;;;;0.00;71.50;;;;;;5080607;28;19967;-69
2022/04/03 04:47:01;;;;;;;;;;;0.00;70.80;;;;;;5080855;28;19913;-69
2022/04/03 04:49:27;;;;;;;;;;;0.00;73.00;;;;;;5080198;28;19921;-70
2022/04/03 04:51:52;;;;;;;;;;;-0.10;71.20;;;;;;5080698;28;19908;-69
2022/04/03 04:54:20;;;;;;;;;;;-0.10;70.90;;;;;;5079140;28;20287;-69
2022/04/03 04:56:46;;;;;;;;;;;-0.10;71.10;;;;;;5080647;28;19909;-69
2022/04/03 04:59:11;;;;;;;;;;;-0.10;69.60;;;;;;5080439;28;19916;-69
2022/04/03 05:01:37;;;;;;;;;;;-0.10;68.20;;;;;;5080447;28;20363;-69
2022/04/03 05:04:03;;;;;;;;;;;-0.20;67.50;;;;;;5080247;28;19908;-69
2022/04/03 05:06:29;;;;;;;;;;;-0.20;69.20;;;;;;5080364;28;19912;-69
2022/04/03 05:08:55;;;;;;;;;;;-0.20;69.70;;;;;;5079821;28;19909;-69
2022/04/03 05:11:21;;;;;;;;;;;-0.30;68.40;;;;;;5080402;28;20284;-69
2022/04/03 05:13:47;;;;;;;;;;;-0.30;67.70;;;;;;5080165;28;20376;-69
2022/04/03 05:16:12;;;;;;;;;;;-0.30;67.30;;;;;;5080206;28;19931;-69
2022/04/03 05:18:38;;;;;;;;;;;-0.30;67.40;;;;;;5079980;28;19908;-69
2022/04/03 05:21:04;;;;;;;;;;;-0.30;70.00;;;;;;5080198;28;19908;-69
2022/04/03 05:23:30;;;;;;;;;;;-0.30;68.60;;;;;;5079639;28;19947;-69
2022/04/03 05:25:57;;;;;;;;;;;-0.40;68.60;;;;;;5079973;28;19909;-69
2022/04/03 05:28:22;;;;;;;;;;;-0.40;68.60;;;;;;5079338;28;19946;-69
2022/04/03 05:30:48;;;;;;;;;;;-0.40;67.40;;;;;;5080073;28;19913;-69
2022/04/03 05:33:14;;;;;;;;;;;-0.40;67.10;;;;;;5079564;28;19997;-69
2022/04/03 05:35:40;;;;;;;;;;;-0.40;67.50;;;;;;5079926;28;20363;-69
2022/04/03 05:38:06;;;;;;;;;;;-0.40;67.30;;;;;;5079366;28;19931;-69
2022/04/03 05:40:31;;;;;;;;;;;-0.40;68.20;;;;;;5079434;28;19912;-69
2022/04/03 05:42:57;;;;;;;;;;;-0.40;67.40;;;;;;5079489;28;19914;-69
2022/04/03 05:45:23;;;;;;;;;;;-0.50;66.80;;;;;;5079151;28;19909;-69
2022/04/03 05:47:49;;;;;;;;;;;-0.50;66.80;;;;;;5078893;28;20033;-69
2022/04/03 05:50:15;;;;;;;;;;;-0.50;66.30;;;;;;5079472;28;19960;-69
2022/04/03 05:52:43;;;;;;;;;;;-0.50;67.90;;;;;;5079076;28;19947;-69
2022/04/03 05:55:09;;;;;;;;;;;-0.50;68.90;;;;;;5079253;28;19999;-69
2022/04/03 05:57:36;;;;;;;;;;;-0.40;70.10;;;;;;5079298;28;19952;-69
2022/04/03 06:00:02;;;;;;;;;;;-0.50;71.80;;;;;;5079306;28;19913;-69
2022/04/03 06:02:28;;;;;;;;;;;-0.40;71.70;;;;;;5078943;28;19908;-69
2022/04/03 06:04:53;;;;;;;;;;;-0.40;72.40;;;;;;5079279;28;19915;-69
2022/04/03 06:07:19;;;;;;;;;;;-0.40;71.60;;;;;;5079012;28;19908;-69
2022/04/03 06:09:44;;;;;;;;;;;-0.40;71.70;;;;;;5078591;28;19920;-69
2022/04/03 06:12:10;;;;;;;;;;;-0.40;73.30;;;;;;5078859;28;20318;-69
2022/04/03 06:14:36;;;;;;;;;;;-0.30;74.40;;;;;;5079179;28;19909;-69
2022/04/03 06:17:02;;;;;;;;;;;-0.30;74.40;;;;;;5078811;28;19912;-69
2022/04/03 06:19:27;;;;;;;;;;;-0.30;74.00;;;;;;5078989;28;20265;-69
2022/04/03 06:21:53;;;;;;;;;;;-0.20;74.60;;;;;;5078616;28;19912;-69
2022/04/03 06:24:18;;;;;;;;;;;-0.20;75.50;;;;;;5078344;28;19909;-69
2022/04/03 06:26:44;;;;;;;;;;;-0.10;76.50;;;;;;5078254;28;20253;-69
2022/04/03 06:29:10;;;;;;;;;;;-0.10;77.90;;;;;;5078680;28;19912;-70
2022/04/03 06:31:35;;;;;;;;;;;-0.10;75.00;;;;;;5078641;28;19909;-69
2022/04/03 06:34:02;;;;;;;;;;;-0.10;72.70;;;;;;5078417;28;19918;-69
2022/04/03 06:36:27;;;;;;;;;;;-0.10;71.20;;;;;;5078449;28;19978;-70
2022/04/03 06:38:53;;;;;;;;;;;0.00;70.40;;;;;;5078101;28;19909;-69
2022/04/03 06:41:19;;;;;;;;;;;0.00;70.50;;;;;;5078169;28;19908;-69
2022/04/03 06:43:44;;;;;;;;;;;0.00;69.50;;;;;;5078530;28;19999;-69
2022/04/03 06:46:10;;;;;;;;;;;0.00;69.10;;;;;;5078542;28;19924;-69
2022/04/03 06:48:36;;;;;;;;;;;0.10;69.40;;;;;;5078269;28;20019;-69
2022/04/03 06:51:01;;;;;;;;;;;0.10;69.20;;;;;;5078193;28;19920;-69
2022/04/03 06:53:27;;;;;;;;;;;0.20;70.70;;;;;;5060026;28;19915;-69
2022/04/03 06:55:53;;;;;;;;;;;0.20;70.10;;;;;;5078050;28;20011;-69
2022/04/03 06:58:18;;;;;;;;;;;0.20;69.20;;;;;;5078138;28;19944;-69
2022/04/03 07:00:44;;;;;;;;;;;0.20;68.50;;;;;;5060093;28;19957;-69
2022/04/03 07:03:10;;;;;;;;;;;0.30;68.10;;;;;;5078360;28;20318;-69
2022/04/03 07:05:35;;;;;;;;;;;0.30;68.00;;;;;;5078076;28;20058;-69
2022/04/03 07:08:01;;;;;;;;;;;0.40;67.90;;;;;;5077773;28;19948;-69
2022/04/03 07:10:27;;;;;;;;;;;0.40;67.80;;;;;;5077696;28;19958;-71
2022/04/03 07:12:55;;;;;;;;;;;0.40;67.70;;;;;;5078174;28;19909;-70
2022/04/03 07:15:20;;;;;;;;;;;0.50;67.80;;;;;;5077943;28;19908;-71
2022/04/03 07:17:46;;;;;;;;;;;0.50;67.50;;;;;;5059947;28;19915;-71
2022/04/03 07:20:13;;;;;;;;;;;0.60;67.70;;;;;;5077757;28;20414;-71
2022/04/03 07:22:40;;;;;;;;;;;0.60;70.90;;;;;;5077699;28;19951;-71
2022/04/03 07:25:06;;;;;;;;;;;0.70;70.20;;;;;;5077530;28;19948;-71
2022/04/03 07:27:32;;;;;;;;;;;0.70;69.60;;;;;;5059368;28;19909;-70
2022/04/03 07:29:58;;;;;;;;;;;0.80;68.70;;;;;;5077639;28;20457;-71
2022/04/03 07:32:23;;;;;;;;;;;0.90;68.60;;;;;;5077730;28;20395;-71
2022/04/03 07:34:49;;;;;;;;;;;0.90;67.90;;;;;;5077539;28;19908;-71
2022/04/03 07:37:14;;;;;;;;;;;1.00;67.90;;;;;;5077847;28;20378;-71
2022/04/03 07:39:40;;;;;;;;;;;1.10;67.70;;;;;;5077059;28;19915;-71
2022/04/03 07:42:06;;;;;;;;;;;1.20;67.60;;;;;;5077913;28;19912;-71
2022/04/03 07:44:31;;;;;;;;;;;1.30;67.70;;;;;;5077403;28;19991;-71
2022/04/03 07:46:57;;;;;;;;;;;1.40;68.10;;;;;;5077821;28;20015;-71
2022/04/03 07:49:23;;;;;;;;;;;1.50;69.30;;;;;;5077252;28;20015;-71
2022/04/03 07:51:49;;;;;;;;;;;1.70;69.90;;;;;;5077646;28;19913;-71
2022/04/03 07:54:14;;;;;;;;;;;2.00;71.60;;;;;;5077062;28;20028;-70
2022/04/03 07:56:40;;;;;;;;;;;2.50;73.90;;;;;;5077663;28;19962;-70
2022/04/03 07:59:06;;;;;;;;;;;3.50;76.30;;;;;;5077441;28;19908;-70
2022/04/03 08:01:35;;;;;;;;;;;4.70;77.20;;;;;;5077562;28;19915;-70
2022/04/03 08:04:00;;;;;;;;;;;5.80;76.20;;;;;;5077378;28;19908;-70
2022/04/03 08:06:26;;;;;;;;;;;6.60;74.00;;;;;;5077516;28;20359;-70
2022/04/03 08:08:52;;;;;;;;;;;7.40;72.70;;;;;;5077268;28;19920;-71
2022/04/03 08:11:18;;;;;;;;;;;8.30;69.30;;;;;;5081201;28;20367;-71
2022/04/03 08:13:45;;;;;;;;;;;8.90;68.00;;;;;;5081105;28;19932;-71
2022/04/03 08:16:10;;;;;;;;;;;9.40;66.70;;;;;;5081283;28;19930;-71
2022/04/03 08:18:36;;;;;;;;;;;10.10;65.40;;;;;;5080977;28;20383;-71
2022/04/03 08:21:02;;;;;;;;;;;10.80;64.80;;;;;;5081268;28;20383;-71
2022/04/03 08:23:28;;;;;;;;;;;11.50;61.50;;;;;;5080758;28;19995;-71
2022/04/03 08:25:53;;;;;;;;;;;12.00;61.70;;;;;;5081020;28;19908;-71
2022/04/03 08:28:19;;;;;;;;;;;12.80;60.30;;;;;;5080725;28;19908;-71
2022/04/03 08:30:45;;;;;;;;;;;13.30;59.20;;;;;;5081134;28;19938;-71
2022/04/03 08:33:11;;;;;;;;;;;14.00;57.60;;;;;;5080568;28;20371;-70
2022/04/03 08:35:38;;;;;;;;;;;14.50;55.90;;;;;;5080748;28;19919;-71
2022/04/03 08:38:07;;;;;;;;;;;15.00;56.40;;;;;;5080362;28;19934;-71
2022/04/03 08:40:33;;;;;;;;;;;15.60;54.90;;;;;;5080450;28;19971;-71
2022/04/03 08:43:00;;;;;;;;;;;16.30;53.70;;;;;;5080637;28;19916;-72
2022/04/03 08:45:26;;;;;;;;;;;16.70;54.10;;;;;;5080714;28;19908;-72
2022/04/03 08:47:53;;;;;;;;;;;17.10;52.90;;;;;;5080402;28;19987;-72
2022/04/03 08:50:23;;;;;;;;;;;17.50;51.20;;;;;;5080551;28;19912;-72
2022/04/03 08:52:50;;;;;;;;;;;18.00;50.10;;;;;;5080178;28;19908;-72
2022/04/03 08:55:16;;;;;;;;;;;18.30;50.40;;;;;;5080683;28;19959;-72
2022/04/03 08:57:42;;;;;;;;;;;19.00;44.60;;;;;;5080446;28;20353;-72
2022/04/03 09:00:08;;;;;;;;;;;19.30;44.60;;;;;;5080560;28;19908;-71
2022/04/03 09:02:33;;;;;;;;;;;19.40;46.60;;;;;;5080400;28;19909;-71
2022/04/03 09:04:59;;;;;;;;;;;19.70;44.60;;;;;;5080598;28;19935;-72
2022/04/03 09:07:25;;;;;;;;;;;19.90;43.40;;;;;;5080067;28;19917;-71
2022/04/03 09:10:17;;;;;;;;;;;20.30;44.70;;;;;;5080049;28;19916;-71
2022/04/03 09:12:45;;;;;;;;;;;20.70;43.10;;;;;;5064958;28;20271;-72
2022/04/03 09:15:14;;;;;;;;;;;21.00;43.70;;;;;;5080301;28;19916;-71
2022/04/03 09:17:49;;;;;;;;;;;21.30;44.30;;;;;;5080357;28;19909;-71
2022/04/03 09:20:15;;;;;;;;;;;21.60;43.90;;;;;;5080019;28;19908;-72
2022/04/03 09:22:42;;;;;;;;;;;21.90;44.80;;;;;;5079720;28;19908;-72
2022/04/03 09:25:12;;;;;;;;;;;22.30;40.50;;;;;;5079725;28;19908;-72
2022/04/03 09:27:45;;;;;;;;;;;22.50;41.80;;;;;;5079613;28;19943;-72
2022/04/03 09:30:11;;;;;;;;;;;22.70;41.90;;;;;;5079638;28;19912;-72
2022/04/03 09:32:55;;;;;;;;;;;23.00;38.90;;;;;;5079801;28;19915;-72
2022/04/03 09:35:21;;;;;;;;;;;23.00;41.30;;;;;;5078898;28;19995;-72
2022/04/03 09:38:05;;;;;;;;;;;23.20;41.90;;;;;;5079655;28;19977;-72
2022/04/03 09:40:32;;;;;;;;;;;23.60;40.90;;;;;;5072970;28;19968;-72
2022/04/03 09:43:11;;;;;;;;;;;23.90;35.60;;;;;;5079589;28;19915;-72
2022/04/03 09:45:42;;;;;;;;;;;24.00;38.70;;;;;;5080125;28;19909;-72
2022/04/03 09:48:18;;;;;;;;;;;24.20;37.70;;;;;;5079244;28;19920;-72
2022/04/03 09:51:02;;;;;;;;;;;24.30;34.40;;;;;;5079828;28;19912;-72
2022/04/03 09:53:29;;;;;;;;;;;24.40;36.90;;;;;;5068086;28;20448;-72
2022/04/03 09:55:55;;;;;;;;;;;24.50;35.50;;;;;;5079143;28;19909;-72
2022/04/03 09:58:22;;;;;;;;;;;24.60;38.00;;;;;;5079526;28;19908;-72
2022/04/03 10:00:47;;;;;;;;;;;24.70;37.40;;;;;;5079377;28;19909;-72
2022/04/03 10:03:13;;;;;;;;;;;24.80;34.90;;;;;;5079347;28;19916;-72
2022/04/03 10:05:39;;;;;;;;;;;24.90;36.30;;;;;;5079123;28;19991;-72
2022/04/03 10:08:05;;;;;;;;;;;25.00;37.20;;;;;;5079005;28;19936;-72
2022/04/03 10:10:32;;;;;;;;;;;25.30;37.80;;;;;;5078782;28;19913;-73
2022/04/03 10:12:58;;;;;;;;;;;25.40;32.80;;;;;;5079188;28;19908;-73
2022/04/03 10:15:24;;;;;;;;;;;25.60;35.90;;;;;;5078874;28;20260;-73
2022/04/03 10:17:50;;;;;;;;;;;25.80;33.70;;;;;;5079073;28;19908;-73
2022/04/03 10:20:16;;;;;;;;;;;25.90;34.40;;;;;;5078796;28;19950;-73
2022/04/03 10:22:46;;;;;;;;;;;25.90;36.00;;;;;;5078747;28;19969;-73
2022/04/03 10:25:15;;;;;;;;;;;26.20;35.20;;;;;;5078811;28;20384;-73
2022/04/03 10:27:43;;;;;;;;;;;26.40;36.20;;;;;;5078431;28;19944;-73
2022/04/03 10:30:10;;;;;;;;;;;26.70;36.90;;;;;;5078579;28;19909;-72
2022/04/03 10:32:36;;;;;;;;;;;26.40;32.20;;;;;;5078454;28;19909;-73
2022/04/03 10:35:06;;;;;;;;;;;26.10;34.70;;;;;;5078374;28;20424;-73
2022/04/03 10:37:34;;;;;;;;;;;26.00;36.00;;;;;;5078221;28;19999;-73
2022/04/03 10:40:05;;;;;;;;;;;26.10;34.00;;;;;;5077951;28;19912;-73
2022/04/03 10:42:31;;;;;;;;;;;26.30;35.30;;;;;;5078358;28;20397;-73
2022/04/03 10:45:12;;;;;;;;;;;26.50;36.70;;;;;;5078207;28;20436;-73
2022/04/03 10:47:41;;;;;;;;;;;26.40;33.00;;;;;;5078264;28;20444;-73
2022/04/03 10:50:08;;;;;;;;;;;25.90;32.90;;;;;;5078497;28;20343;-73
2022/04/03 10:52:36;;;;;;;;;;;25.20;32.90;;;;;;5077978;28;20269;-73
2022/04/03 10:55:11;;;;;;;;;;;24.50;32.50;;;;;;5078332;28;20291;-73
2022/04/03 10:57:45;;;;;;;;;;;24.10;33.00;;;;;;5078129;28;19909;-73
2022/04/03 11:00:11;;;;;;;;;;;23.30;31.30;;;;;;5078283;28;19918;-72
2022/04/03 11:02:36;;;;;;;;;;;22.60;34.50;;;;;;5077974;28;19908;-72
2022/04/03 11:05:20;;;;;;;;;;;21.80;34.50;;;;;;5078348;28;19918;-72
2022/04/03 11:07:46;;;;;;;;;;;21.00;34.00;;;;;;5065327;28;19960;-72
2022/04/03 11:10:12;;;;;;;;;;;20.10;34.30;;;;;;5077957;28;19912;-72
2022/04/03 11:12:44;;;;;;;;;;;19.40;34.70;;;;;;5078327;28;19944;-72
2022/04/03 11:15:13;;;;;;;;;;;18.90;36.20;;;;;;5078082;28;19916;-72
2022/04/03 11:17:54;;;;;;;;;;;18.40;36.70;;;;;;5078188;28;19909;-72
2022/04/03 11:20:42;;;;;;;;;;;18.00;36.60;;;;;;5077756;28;19912;-72
2022/04/03 11:23:10;;;;;;;;;;;17.50;36.80;;;;;;5077743;28;19955;-72
2022/04/03 11:25:36;;;;;;;;;;;17.50;39.70;;;;;;5059837;28;19958;-73
2022/04/03 11:28:01;;;;;;;;;;;18.50;40.00;;;;;;5076580;28;19920;-73
2022/04/03 11:30:27;;;;;;;;;;;19.40;39.30;;;;;;5077701;28;19909;-72
2022/04/03 11:32:53;;;;;;;;;;;20.00;37.50;;;;;;5078137;28;20248;-72
2022/04/03 11:35:35;;;;;;;;;;;20.00;36.20;;;;;;5077570;28;19908;-73
2022/04/03 11:38:01;;;;;;;;;;;20.00;37.60;;;;;;5077493;28;19946;-72
2022/04/03 11:40:28;;;;;;;;;;;19.90;34.60;;;;;;5077253;28;20004;-73
2022/04/03 11:43:10;;;;;;;;;;;20.30;35.70;;;;;;5077790;28;19909;-72
2022/04/03 11:45:36;;;;;;;;;;;20.90;37.20;;;;;;5081048;28;20387;-73
2022/04/03 11:48:15;;;;;;;;;;;21.10;34.40;;;;;;5081786;28;20280;-73
2022/04/03 11:50:41;;;;;;;;;;;21.60;37.50;;;;;;5081814;28;19908;-73
2022/04/03 11:53:08;;;;;;;;;;;22.00;37.10;;;;;;5081239;28;19908;-72
2022/04/03 11:55:35;;;;;;;;;;;22.40;35.90;;;;;;5081693;28;19913;-73
2022/04/03 11:58:03;;;;;;;;;;;22.60;35.30;;;;;;5068191;28;20394;-73
2022/04/03 12:00:30;;;;;;;;;;;22.90;37.10;;;;;;5081636;28;19912;-73
2022/04/03 12:02:57;;;;;;;;;;;23.00;34.60;;;;;;5081510;28;19909;-73
2022/04/03 12:05:22;;;;;;;;;;;22.90;34.60;;;;;;5081456;28;19913;-73
2022/04/03 12:07:49;;;;;;;;;;;22.60;33.40;;;;;;5081346;28;20360;-73
2022/04/03 12:10:26;;;;;;;;;;;22.70;34.80;;;;;;5081105;28;19959;-73
2022/04/03 12:12:53;;;;;;;;;;;22.70;35.50;;;;;;5081564;28;19908;-73
2022/04/03 12:15:22;;;;;;;;;;;22.80;34.30;;;;;;5081384;28;19935;-72
2022/04/03 12:17:55;;;;;;;;;;;22.90;34.00;;;;;;5081459;28;19944;-72
2022/04/03 12:20:20;;;;;;;;;;;22.80;33.40;;;;;;5080992;28;19912;-72
2022/04/03 12:22:49;;;;;;;;;;;22.80;34.50;;;;;;5081010;28;19962;-72
2022/04/03 12:25:14;;;;;;;;;;;22.90;34.20;;;;;;5080912;28;19942;-73
2022/04/03 12:27:40;;;;;;;;;;;22.90;33.50;;;;;;5080640;28;19913;-72
2022/04/03 12:30:07;;;;;;;;;;;23.10;35.10;;;;;;5080918;28;19915;-72
2022/04/03 12:32:39;;;;;;;;;;;23.20;35.10;;;;;;5080867;28;19931;-72
2022/04/03 12:35:09;;;;;;;;;;;23.40;35.10;;;;;;5080630;28;20387;-72
2022/04/03 12:37:40;;;;;;;;;;;23.40;33.80;;;;;;5080400;28;19912;-73
2022/04/03 12:40:08;;;;;;;;;;;23.00;33.80;;;;;;5080529;28;19920;-72
2022/04/03 12:42:42;;;;;;;;;;;22.40;34.50;;;;;;5080912;28;19909;-72
2022/04/03 12:45:13;;;;;;;;;;;21.80;35.00;;;;;;5068011;28;20472;-72
2022/04/03 12:47:40;;;;;;;;;;;21.20;35.30;;;;;;5080604;28;20387;-72
2022/04/03 12:50:05;;;;;;;;;;;20.60;35.40;;;;;;5080841;28;20356;-72
2022/04/03 12:52:50;;;;;;;;;;;20.30;36.20;;;;;;5080208;28;19909;-72
2022/04/03 12:55:23;;;;;;;;;;;19.60;35.30;;;;;;5079941;28;20003;-72
2022/04/03 13:00:54;;;;;;;;;;;18.60;36.50;;;;;;5080330;28;20049;-72
2022/04/03 13:03:29;;;;;;;;;;;18.10;37.70;;;;;;5080523;28;19912;-72
2022/04/03 13:06:04;;;;;;;;;;;17.90;37.60;;;;;;5080216;28;20291;-72
2022/04/03 13:08:43;;;;;;;;;;;17.60;37.40;;;;;;5079962;28;20283;-72
2022/04/03 13:11:10;;;;;;;;;;;17.30;36.70;;;;;;5068983;28;19997;-72
2022/04/03 13:13:36;;;;;;;;;;;17.10;37.20;;;;;;5080150;28;19908;-72
2022/04/03 13:16:02;;;;;;;;;;;16.80;37.00;;;;;;5080341;28;19916;-72
2022/04/03 13:18:28;;;;;;;;;;;16.50;38.10;;;;;;5080000;28;19909;-72
2022/04/03 13:20:55;;;;;;;;;;;16.40;37.90;;;;;;5080170;28;19917;-72
2022/04/03 13:23:21;;;;;;;;;;;16.20;38.50;;;;;;5079590;28;19923;-72
2022/04/03 13:25:47;;;;;;;;;;;16.10;38.90;;;;;;5061885;28;19909;-72
2022/04/03 13:28:13;;;;;;;;;;;16.10;39.30;;;;;;5078438;28;19909;-72
2022/04/03 13:30:39;;;;;;;;;;;16.10;38.00;;;;;;5080222;28;20003;-72
2022/04/03 13:33:05;;;;;;;;;;;16.30;38.60;;;;;;5079696;28;19944;-72
2022/04/03 13:35:31;;;;;;;;;;;16.20;39.10;;;;;;5061799;28;20363;-72
2022/04/03 13:37:56;;;;;;;;;;;16.20;39.20;;;;;;5079377;28;19908;-72
2022/04/03 13:40:22;;;;;;;;;;;16.00;39.30;;;;;;5061701;28;19916;-72
2022/04/03 13:42:47;;;;;;;;;;;15.80;39.40;;;;;;5079750;28;20394;-71
2022/04/03 13:45:13;;;;;;;;;;;15.60;40.00;;;;;;5079700;28;19931;-71
2022/04/03 13:47:39;;;;;;;;;;;15.50;40.90;;;;;;5079493;28;19909;-72
2022/04/03 13:50:05;;;;;;;;;;;15.30;40.70;;;;;;5079641;28;20295;-71
2022/04/03 13:52:30;;;;;;;;;;;15.20;41.10;;;;;;5079215;28;19913;-71
2022/04/03 13:54:57;;;;;;;;;;;15.00;41.80;;;;;;5079431;28;19913;-72
2022/04/03 13:57:23;;;;;;;;;;;14.90;42.70;;;;;;5079481;28;19913;-71
2022/04/03 13:59:50;;;;;;;;;;;15.00;42.00;;;;;;5079330;28;19913;-72
2022/04/03 14:02:16;;;;;;;;;;;15.00;41.20;;;;;;5079269;28;19950;-71
2022/04/03 14:04:42;;;;;;;;;;;15.10;41.80;;;;;;5079299;28;19919;-71
2022/04/03 14:07:07;;;;;;;;;;;15.20;42.20;;;;;;5078396;28;19909;-71
2022/04/03 14:09:33;;;;;;;;;;;15.20;41.00;;;;;;5078866;28;19908;-71
2022/04/03 14:11:59;;;;;;;;;;;15.20;41.60;;;;;;5079095;28;19908;-71
2022/04/03 14:14:24;;;;;;;;;;;15.10;41.70;;;;;;5078988;28;19909;-71
2022/04/03 14:16:50;;;;;;;;;;;14.90;41.50;;;;;;5079042;28;19916;-71
2022/04/03 14:19:16;;;;;;;;;;;14.80;42.60;;;;;;5078844;28;19916;-71
2022/04/03 14:21:41;;;;;;;;;;;14.80;42.20;;;;;;5078973;28;19916;-72